首页
METAR-TAF:

METAR-TAF

机场 :

帕果帕果國際機場

帕果帕果, 美国本土外小岛屿

纬度: 14-20S, 经度: 170-43W, 海拔: 3米

当前天气观测

该预报发布于32分钟前的03:50 UTC
风速3节,风向多变
温度 28°C
湿度 79%
气压 1011 hPa
能見度: 19.3公里
少量云层高于1800英尺
散云层高于4000英尺
多云层高于10000英尺

METAR: NSTU 230350Z VRB03KT 12SM FEW018 SCT040 BKN100 28/24 A2984 RMK SLP107 T02840244

时间: 17:22 (04:22 UTC)

预报

该预报发布于1小时和2分钟前的03:20 UTC
预报有效从23日的 03点(UTC)到 23日的 24点(UTC)
风速5节,风向多变
能見度: 10公里
散云层高于2000英尺
多云层高于4000英尺
多云层高于10000英尺
附近有阵雨

TAF: NSTU 230320Z 2303/2324 VRB05KT P6SM VCSH SCT020 BKN040 BKN100

超过4000个机场的气象观测和天气预报(METAR&TAF报告)。

可查询的气象台以黄色和红色小点在地图上表示。

将鼠标移到小点上方,可查看气象台名称。

然后点击查看天气观测和预报。

如需切换地图:点击带黑十字的绿色按钮放大地图;点击带横线的绿色按钮缩小地图;或者点击绿色箭头查看邻近地区的地图。


METAR-TAF: